Time;durP1;ratioP1;P1;durP2;ratioP2;P2;SDS_P1;SDS_P2;PMS_P1;PMS_P2;Temp;Humidity;BMP_temperature;BMP_pressure;BME280_temperature;BME280_humidity;BME280_pressure;Samples;Min_cycle;Max_cycle;Signal;HPM_P1;HPM_P2
2022/03/19 00:01:23;;;;;;;39.13;18.37;;;;;;;-1.83;100.00;60618.41;5070917;28;20515;-72
2022/03/19 00:03:51;;;;;;;45.67;20.43;;;;;;;-1.74;100.00;60625.94;5071284;28;20478;-73
2022/03/19 00:06:18;;;;;;;44.40;18.33;;;;;;;-1.81;100.00;60615.53;5066683;28;20468;-73
2022/03/19 00:08:46;;;;;;;42.13;17.40;;;;;;;-1.69;100.00;60627.69;5091687;28;20441;-73
2022/03/19 00:11:13;;;;;;;38.67;17.03;;;;;;;-1.63;100.00;60639.53;5091382;28;20438;-74
2022/03/19 00:13:40;;;;;;;28.97;12.57;;;;;;;-1.62;100.00;60638.09;5091627;28;20514;-74
2022/03/19 00:16:07;;;;;;;23.90;10.43;;;;;;;-1.63;100.00;60637.03;5091449;28;20536;-73
2022/03/19 00:18:34;;;;;;;15.30;8.63;;;;;;;-1.72;100.00;60627.53;5091434;28;20510;-74
2022/03/19 00:21:02;;;;;;;16.57;8.27;;;;;;;-1.69;100.00;60633.19;5091246;28;20442;-73
2022/03/19 00:23:29;;;;;;;13.93;7.17;;;;;;;-2.03;100.00;60594.75;5091430;28;20438;-72
2022/03/19 00:25:56;;;;;;;21.13;9.93;;;;;;;-2.05;100.00;60595.13;5091233;28;20522;-73
2022/03/19 00:28:22;;;;;;;13.87;7.77;;;;;;;-2.16;100.00;60584.03;5091220;28;20471;-72
2022/03/19 00:30:49;;;;;;;20.90;9.03;;;;;;;-2.16;100.00;60584.03;5091215;28;20502;-71
2022/03/19 00:33:16;;;;;;;82.83;21.40;;;;;;;-1.98;100.00;60600.56;5091054;28;20875;-71
2022/03/19 00:35:44;;;;;;;254.60;61.70;;;;;;;-1.92;100.00;60606.38;5091301;28;20542;-73
2022/03/19 00:38:12;;;;;;;47.03;13.60;;;;;;;-2.36;100.00;60557.91;5091333;28;20861;-73
2022/03/19 00:40:39;;;;;;;27.13;9.07;;;;;;;-1.85;100.00;60616.28;5091360;28;20895;-74
2022/03/19 00:43:06;;;;;;;28.23;10.13;;;;;;;-1.87;100.00;60611.66;5091052;28;20445;-73
2022/03/19 00:45:32;;;;;;;24.83;8.70;;;;;;;-2.14;100.00;60588.09;5090643;28;20484;-73
2022/03/19 00:48:02;;;;;;;16.53;7.73;;;;;;;-2.04;100.00;60596.72;5090992;28;20446;-73
2022/03/19 00:50:29;;;;;;;17.10;7.67;;;;;;;-2.00;100.00;60597.91;5073085;28;20452;-73
2022/03/19 00:52:56;;;;;;;14.13;7.20;;;;;;;-2.06;100.00;60591.56;5091255;28;20434;-73
2022/03/19 00:55:24;;;;;;;13.27;6.77;;;;;;;-2.07;100.00;60591.03;5091043;28;20450;-73
2022/03/19 00:57:50;;;;;;;14.73;7.20;;;;;;;-2.06;100.00;60594.06;5091083;28;20434;-74
2022/03/19 01:00:24;;;;;;;18.17;7.00;;;;;;;-2.39;100.00;60554.72;5094220;28;20449;-73
2022/03/19 01:02:52;;;;;;;15.27;7.10;;;;;;;-2.22;100.00;60577.16;5094897;28;20453;-73
2022/03/19 01:05:19;;;;;;;14.40;7.40;;;;;;;-2.32;100.00;60564.63;5094405;28;20488;-73
2022/03/19 01:07:47;;;;;;;15.37;6.80;;;;;;;-2.27;100.00;60569.41;5094855;28;20877;-73
2022/03/19 01:10:16;;;;;;;18.30;7.97;;;;;;;-2.30;100.00;60573.69;5094076;28;20473;-74
2022/03/19 01:12:44;;;;;;;16.20;8.00;;;;;;;-2.45;100.00;60552.88;5094380;28;20815;-74
2022/03/19 01:15:11;;;;;;;20.27;7.67;;;;;;;-3.27;100.00;60464.81;5094023;28;20506;-72
2022/03/19 01:17:39;;;;;;;16.27;7.57;;;;;;;-2.75;100.00;60522.22;5094718;28;20441;-73
2022/03/19 01:20:07;;;;;;;14.97;7.77;;;;;;;-2.59;100.00;60538.59;5094329;28;20444;-72
2022/03/19 01:22:35;;;;;;;13.57;6.57;;;;;;;-2.54;100.00;60541.38;5094293;28;20449;-73
2022/03/19 01:25:04;;;;;;;9.87;5.80;;;;;;;-2.53;100.00;60546.91;5094297;28;20491;-72
2022/03/19 01:27:32;;;;;;;12.70;6.27;;;;;;;-2.52;100.00;60541.00;5093928;28;20449;-72
2022/03/19 01:30:01;;;;;;;22.10;7.90;;;;;;;-2.66;100.00;60531.22;5094127;28;20438;-74
2022/03/19 01:32:28;;;;;;;11.53;5.77;;;;;;;-2.65;100.00;60532.78;5094185;28;20495;-73
2022/03/19 01:34:55;;;;;;;8.83;4.80;;;;;;;-2.72;100.00;60525.41;5075734;28;21015;-73
2022/03/19 01:37:22;;;;;;;12.17;5.60;;;;;;;-2.66;100.00;60526.22;5093950;28;20441;-74
2022/03/19 01:39:52;;;;;;;12.10;5.33;;;;;;;-2.56;100.00;60541.78;5093886;28;20479;-71
2022/03/19 01:42:23;;;;;;;7.90;4.33;;;;;;;-3.34;100.00;60459.94;5093775;28;20452;-73
2022/03/19 01:44:51;;;;;;;9.07;4.67;;;;;;;-2.63;100.00;60534.91;5093750;28;20485;-73
2022/03/19 01:47:20;;;;;;;11.40;4.67;;;;;;;-2.69;100.00;60526.06;5093722;28;20517;-72
2022/03/19 01:49:47;;;;;;;11.07;5.50;;;;;;;-2.77;100.00;60522.06;5093629;28;20563;-73
2022/03/19 01:52:14;;;;;;;12.05;4.85;;;;;;;-3.40;100.00;60458.59;5093609;28;20872;-73
2022/03/19 01:54:43;;;;;;;11.53;5.27;;;;;;;-2.79;100.00;60517.47;5093505;28;20261;-74
2022/03/19 01:57:14;;;;;;;8.93;5.10;;;;;;;-2.72;100.00;60527.88;5093571;28;20438;-73
2022/03/19 01:59:42;;;;;;;10.30;5.40;;;;;;;-2.83;100.00;60513.25;5093400;28;20529;-73
2022/03/19 02:02:10;;;;;;;8.73;5.00;;;;;;;-3.76;100.00;60415.63;5075130;28;20472;-74
2022/03/19 02:04:41;;;;;;;12.40;5.60;;;;;;;-2.76;100.00;60523.66;5093327;28;20474;-73
2022/03/19 02:07:09;;;;;;;10.50;4.93;;;;;;;-2.83;100.00;60516.25;5072903;28;20450;-73
2022/03/19 02:09:36;;;;;;;9.73;5.07;;;;;;;-3.02;100.00;60488.19;5073209;28;20505;-72
2022/03/19 02:12:04;;;;;;;13.00;5.33;;;;;;;-2.98;100.00;60497.94;5089413;28;20445;-74
2022/03/19 02:14:34;;;;;;;9.67;4.53;;;;;;;-3.01;100.00;60494.75;5093073;28;20876;-73
2022/03/19 02:17:02;;;;;;;9.47;5.63;;;;;;;-2.89;100.00;60504.94;5093312;28;20452;-73
2022/03/19 02:19:29;;;;;;;10.90;5.67;;;;;;;-2.78;100.00;60519.06;5092807;28;20841;-72
2022/03/19 02:21:59;;;;;;;12.23;5.97;;;;;;;-2.78;100.00;60516.03;5078683;28;20811;-73
2022/03/19 02:27:12;;;;;;;12.53;5.40;;;;;;;-2.78;100.00;60514.06;5074214;28;20822;-74
2022/03/19 02:29:40;;;;;;;13.43;5.90;;;;;;;-2.75;100.00;60522.22;5092970;28;20460;-73
2022/03/19 02:32:08;;;;;;;11.33;5.50;;;;;;;-3.36;100.00;60457.81;5092800;28;20494;-74
2022/03/19 02:34:35;;;;;;;11.63;5.90;;;;;;;-2.97;100.00;60494.00;5092829;28;20547;-73
2022/03/19 02:37:03;;;;;;;12.63;6.47;;;;;;;-3.02;100.00;60493.72;5092717;28;20468;-73
2022/03/19 02:39:31;;;;;;;10.37;5.27;;;;;;;-3.18;100.00;60476.28;5092953;28;20488;-72
2022/03/19 02:42:00;;;;;;;13.63;5.83;;;;;;;-3.15;100.00;60479.97;5092975;28;20473;-73
2022/03/19 02:44:28;;;;;;;12.50;6.13;;;;;;;-3.23;100.00;60471.53;5092475;28;20477;-73
2022/03/19 02:46:57;;;;;;;13.37;5.63;;;;;;;-3.15;100.00;60475.00;5092888;28;20445;-73
2022/03/19 02:49:24;;;;;;;10.50;5.40;;;;;;;-3.16;100.00;60475.91;5092463;28;20437;-73
2022/03/19 02:51:55;;;;;;;12.93;5.60;;;;;;;-3.86;100.00;60412.53;5074625;28;20441;-73
2022/03/19 02:54:23;;;;;;;13.50;6.33;;;;;;;-3.26;100.00;60463.41;5092574;28;20445;-74
2022/03/19 02:56:53;;;;;;;11.80;5.87;;;;;;;-3.16;100.00;60478.94;5092463;28;20445;-74
2022/03/19 02:59:21;;;;;;;15.03;6.80;;;;;;;-4.10;100.00;60380.25;5092230;28;20799;-73
2022/03/19 03:01:49;;;;;;;16.27;7.37;;;;;;;-3.25;100.00;60464.44;5092257;28;20472;-74
2022/03/19 03:04:16;;;;;;;22.40;7.57;;;;;;;-3.27;100.00;60462.34;5092259;28;20439;-74
2022/03/19 03:06:45;;;;;;;14.40;7.63;;;;;;;-3.18;100.00;60476.81;5092342;28;20454;-73
2022/03/19 03:09:13;;;;;;;16.20;8.30;;;;;;;-3.06;100.00;60489.50;5092141;28;20526;-74
2022/03/19 03:11:41;;;;;;;17.63;8.60;;;;;;;-3.05;100.00;60490.53;5092111;28;20441;-74
2022/03/19 03:14:10;;;;;;;18.27;7.87;;;;;;;-3.06;100.00;60491.97;5092331;28;20438;-73
2022/03/19 03:16:38;;;;;;;15.60;8.10;;;;;;;-3.83;100.00;60408.22;5092091;28;20438;-73
2022/03/19 03:19:07;;;;;;;11.37;5.43;;;;;;;-3.21;100.00;60478.63;5092032;28;20442;-74
2022/03/19 03:21:34;;;;;;;15.53;5.93;;;;;;;-3.52;100.00;60441.44;5091555;28;20438;-74
2022/03/19 03:24:03;;;;;;;9.20;5.20;;;;;;;-3.26;100.00;60473.34;5092543;28;20510;-73
2022/03/19 03:26:31;;;;;;;9.75;5.05;;;;;;;-3.35;100.00;60456.38;5091840;28;20500;-74
2022/03/19 03:28:58;;;;;;;9.33;4.63;;;;;;;-3.40;100.00;60450.56;5092285;28;20195;-74
2022/03/19 03:31:27;;;;;;;9.87;4.97;;;;;;;-3.47;100.00;60446.19;5092504;28;20450;-72
2022/03/19 03:33:55;;;;;;;12.87;5.30;;;;;;;-3.54;100.00;60439.34;5092010;28;20558;-74
2022/03/19 03:36:24;;;;;;;9.60;4.88;;;;;;;-3.46;100.00;60447.28;5091730;28;20448;-74
2022/03/19 03:38:51;;;;;;;7.80;4.60;;;;;;;-3.58;100.00;60435.13;5091776;28;20297;-73
2022/03/19 03:41:18;;;;;;;9.30;4.72;;;;;;;-3.53;100.00;60439.88;5092164;28;20545;-73
2022/03/19 03:43:46;;;;;;;7.37;4.57;;;;;;;-3.53;100.00;60439.88;5091719;28;20734;-73
2022/03/19 03:46:14;;;;;;;15.13;6.00;;;;;;;-3.35;100.00;60458.88;5091604;28;20880;-72
2022/03/19 03:48:42;;;;;;;11.80;5.22;;;;;;;-3.56;100.00;60436.72;5091889;28;20499;-73
2022/03/19 03:51:12;;;;;;;15.37;5.07;;;;;;;-3.53;100.00;60439.88;5073825;28;20199;-73
2022/03/19 03:53:40;;;;;;;18.13;5.27;;;;;;;-3.47;100.00;60446.19;5091997;28;20947;-74
2022/03/19 03:56:09;;;;;;;10.50;5.27;;;;;;;-3.57;100.00;60433.16;5091886;28;20441;-74
2022/03/19 03:58:36;;;;;;;13.50;5.50;;;;;;;-3.78;100.00;60413.50;5091775;28;20445;-71
2022/03/19 04:01:03;;;;;;;9.05;4.85;;;;;;;-3.83;100.00;60408.22;5091566;28;20204;-74
2022/03/19 04:03:30;;;;;;;13.13;5.78;;;;;;;-3.85;100.00;60406.63;5091644;28;20199;-74
2022/03/19 04:05:58;;;;;;;14.33;6.23;;;;;;;-3.69;100.00;60420.50;5091498;28;20250;-73
2022/03/19 04:08:25;;;;;;;13.07;6.17;;;;;;;-3.56;100.00;60436.72;5091431;28;20888;-74
2022/03/19 04:10:52;;;;;;;13.18;5.80;;;;;;;-3.57;100.00;60433.16;5091614;28;20495;-74
2022/03/19 04:13:19;;;;;;;17.53;6.70;;;;;;;-3.59;100.00;60431.06;5091556;28;20195;-72
2022/03/19 04:15:46;;;;;;;14.67;6.90;;;;;;;-3.45;100.00;60448.31;5091429;28;20485;-74
2022/03/19 04:18:13;;;;;;;15.67;6.30;;;;;;;-3.45;100.00;60448.31;5091126;28;21032;-72
2022/03/19 04:20:41;;;;;;;19.97;7.00;;;;;;;-3.46;100.00;60449.75;5091376;28;20452;-72
2022/03/19 04:23:09;;;;;;;18.30;7.33;;;;;;;-3.61;100.00;60426.44;5091400;28;20434;-73
2022/03/19 04:25:36;;;;;;;21.23;6.90;;;;;;;-3.49;100.00;60444.09;5091191;28;20484;-73
2022/03/19 04:28:03;;;;;;;11.87;5.67;;;;;;;-3.61;100.00;60428.94;5091384;28;20502;-74
2022/03/19 04:30:30;;;;;;;12.13;6.00;;;;;;;-4.23;100.00;60366.03;5090819;28;20450;-73
2022/03/19 04:32:59;;;;;;;10.63;5.93;;;;;;;-3.67;100.00;60423.16;5091289;28;20869;-73
2022/03/19 04:38:20;;;;;;;17.58;6.63;;;;;;;-3.72;100.00;60417.34;5017873;28;20448;-73
2022/03/19 04:40:50;;;;;;;18.97;6.33;;;;;;;-4.42;100.00;60347.06;5074847;28;20250;-73
2022/03/19 04:43:17;;;;;;;11.17;6.20;;;;;;;-3.64;100.00;60431.28;5074512;28;20446;-73
2022/03/19 04:45:44;;;;;;;12.50;6.47;;;;;;;-3.59;100.00;60434.06;5074578;28;20563;-74
2022/03/19 04:48:11;;;;;;;17.93;6.73;;;;;;;-3.52;100.00;60436.47;5074830;28;20496;-73
2022/03/19 04:50:39;;;;;;;12.53;6.50;;;;;;;-4.28;100.00;60360.78;5074511;28;20457;-73
2022/03/19 04:53:07;;;;;;;16.93;6.70;;;;;;;-3.43;100.00;60447.94;5074679;28;20446;-72
2022/03/19 04:55:36;;;;;;;16.20;7.47;;;;;;;-3.53;100.00;60440.41;5074386;28;20457;-74
2022/03/19 04:58:04;;;;;;;14.40;7.23;;;;;;;-3.76;100.00;60410.63;5074358;28;20439;-72
2022/03/19 05:00:32;;;;;;;22.87;7.60;;;;;;;-3.42;100.00;60449.50;5074575;28;20445;-72
2022/03/19 05:02:59;;;;;;;16.43;7.43;;;;;;;-3.19;100.00;60475.75;5074581;28;20519;-73
2022/03/19 05:05:26;;;;;;;16.47;6.60;;;;;;;-3.07;100.00;60488.44;5074096;28;21106;-72
2022/03/19 05:07:53;;;;;;;29.00;7.37;;;;;;;-3.00;100.00;60495.81;5074186;28;20496;-73
2022/03/19 05:13:06;;;;;;;17.53;6.70;;;;;;;-3.22;100.00;60470.13;5074499;28;20998;-72
2022/03/19 05:15:33;;;;;;;13.03;6.60;;;;;;;-3.07;100.00;60487.91;5074455;28;20438;-73
2022/03/19 05:18:00;;;;;;;13.03;6.03;;;;;;;-2.92;100.00;60506.78;5074190;28;20453;-74
2022/03/19 05:20:28;;;;;;;14.97;5.90;;;;;;;-2.88;100.00;60505.47;5075551;28;20458;-73
2022/03/19 05:22:55;;;;;;;19.83;7.20;;;;;;;-2.80;100.00;60514.47;5073856;28;20866;-72
2022/03/19 05:25:22;;;;;;;15.50;6.77;;;;;;;-2.73;100.00;60524.34;5073744;28;20477;-72
2022/03/19 05:27:50;;;;;;;28.50;10.33;;;;;;;-2.52;100.00;60540.47;5074067;28;20500;-72
2022/03/19 05:30:18;;;;;;;26.77;11.50;;;;;;;-2.39;100.00;60557.22;5073963;28;20512;-72
2022/03/19 05:32:45;;;;;;;28.73;11.00;;;;;;;-2.45;100.00;60552.88;5073877;28;20937;-72
2022/03/19 05:35:12;;;;;;;36.00;11.93;;;;;;;-2.40;100.00;60553.16;5073890;28;20486;-72
2022/03/19 05:37:40;;;;;;;30.20;11.73;;;;;;;-2.26;100.00;60572.94;5073564;28;20431;-72
2022/03/19 05:40:10;;;;;;;28.23;12.40;;;;;;;-2.09;100.00;60591.41;5074889;28;20499;-73
2022/03/19 05:42:37;;;;;;;30.93;10.70;;;;;;;-1.80;100.00;60616.56;5073771;28;20512;-74
2022/03/19 05:45:04;;;;;;;34.40;12.47;;;;;;;-1.75;100.00;60626.84;5073192;28;20507;-73
2022/03/19 05:47:33;;;;;;;23.03;10.63;;;;;;;-1.66;100.00;60635.81;5072898;28;20450;-73
2022/03/19 05:50:00;;;;;;;26.67;12.40;;;;;;;-1.39;100.00;60664.94;5073317;28;20964;-73
2022/03/19 05:52:28;;;;;;;26.00;12.37;;;;;;;-1.50;100.00;60652.75;5073314;28;20567;-73
2022/03/19 05:54:54;;;;;;;34.13;14.23;;;;;;;-1.24;100.00;60680.78;5073362;28;20454;-73
2022/03/19 05:57:21;;;;;;;27.60;14.27;;;;;;;-1.10;100.00;60688.09;5073536;28;20503;-74
2022/03/19 05:59:49;;;;;;;37.73;15.10;;;;;;;-1.09;100.00;60696.66;5073412;28;20453;-72
2022/03/19 06:02:16;;;;;;;39.10;17.53;;;;;;;-0.97;100.00;60701.88;5073227;28;20524;-73
2022/03/19 06:04:44;;;;;;;45.70;20.30;;;;;;;-0.90;100.00;60714.25;5072796;28;20455;-71
2022/03/19 06:07:11;;;;;;;49.23;21.47;;;;;;;-1.02;100.00;60703.53;5073164;28;20490;-73
2022/03/19 06:09:37;;;;;;;52.20;19.93;;;;;;;-1.23;100.00;60679.34;5072680;28;20500;-72
2022/03/19 06:12:05;;;;;;;47.63;20.77;;;;;;;-0.96;100.00;60710.41;5073274;28;20447;-73
2022/03/19 06:14:32;;;;;;;44.30;18.60;;;;;;;-0.71;100.00;60733.31;5072981;28;20515;-71
2022/03/19 06:16:59;;;;;;;37.17;16.50;;;;;;;-0.44;100.00;60764.41;5072021;28;20492;-71
2022/03/19 06:19:26;;;;;;;42.63;21.10;;;;;;;-0.41;100.00;60760.06;5082792;28;20458;-73
2022/03/19 06:21:54;;;;;;;144.40;45.10;;;;;;;-0.43;100.00;60762.97;5082677;28;20502;-73
2022/03/19 06:24:23;;;;;;;45.83;17.30;;;;;;;-0.54;100.00;60756.31;5071815;28;20507;-72
2022/03/19 06:26:51;;;;;;;41.80;18.80;;;;;;;-0.12;100.00;60793.81;5072108;28;20482;-75
2022/03/19 06:29:28;;;;;;;28.87;12.77;;;;;;;-0.28;100.00;60781.34;5086779;28;20477;-77
2022/03/19 06:31:56;;;;;;;26.33;11.87;;;;;;;-0.25;100.00;60782.03;5073700;28;20516;-73
2022/03/19 06:34:23;;;;;;;21.53;10.67;;;;;;;0.12;100.00;60818.72;5072576;28;20486;-75
2022/03/19 06:39:37;;;;;;;22.10;11.13;;;;;;;1.03;100.00;60922.16;5072503;28;20580;-73
2022/03/19 06:42:04;;;;;;;22.03;11.20;;;;;;;1.56;100.00;60970.34;5072308;28;20427;-74
2022/03/19 06:44:31;;;;;;;24.03;10.83;;;;;;;1.36;100.00;60949.66;5077194;28;20460;-75
2022/03/19 06:46:59;;;;;;;19.87;10.33;;;;;;;1.18;100.00;60930.03;5054382;28;20553;-73
2022/03/19 06:49:28;;;;;;;23.37;11.10;;;;;;;1.19;100.00;60931.09;5077544;28;20876;-71
2022/03/19 06:51:55;;;;;;;27.57;13.10;;;;;;;1.38;100.00;60951.25;5072019;28;20505;-73
2022/03/19 06:54:22;;;;;;;27.73;13.10;;;;;;;1.77;100.00;60997.66;5072191;28;20980;-72
2022/03/19 06:56:52;;;;;;;31.73;12.90;;;;;;;2.12;100.00;61039.84;5071397;28;20447;-75
2022/03/19 06:59:19;;;;;;;32.70;12.37;;;;;;;2.59;100.00;61084.22;5072060;28;20470;-72
2022/03/19 07:01:46;;;;;;;26.90;12.70;;;;;;;2.85;100.00;61108.78;5071952;28;20980;-73
2022/03/19 07:04:14;;;;;;;24.87;11.47;;;;;;;2.92;100.00;61118.75;5072102;28;20446;-74
2022/03/19 07:06:43;;;;;;;24.40;10.70;;;;;;;2.83;100.00;61104.13;5071952;28;20482;-73
2022/03/19 07:09:12;;;;;;;19.40;10.33;;;;;;;2.56;100.00;61079.03;5071689;28;20799;-74
2022/03/19 07:11:39;;;;;;;21.50;10.23;;;;;;;3.72;100.00;61198.78;5071923;28;20455;-74
2022/03/19 07:14:10;;;;;;;25.07;11.07;;;;;;;4.07;100.00;61238.50;5072134;28;20438;-74
2022/03/19 07:16:37;;;;;;;23.03;10.77;;;;;;;4.40;97.32;61270.03;5071308;28;20534;-73
2022/03/19 07:19:04;;;;;;;21.83;11.20;;;;;;;4.34;91.97;61266.19;5078796;28;20438;-73
2022/03/19 07:21:31;;;;;;;21.33;11.60;;;;;;;4.48;90.45;61286.13;5091756;28;20442;-75
2022/03/19 07:23:58;;;;;;;18.27;10.60;;;;;;;4.48;87.68;61278.56;5076681;28;20511;-74
2022/03/19 07:26:26;;;;;;;23.47;11.33;;;;;;;4.65;88.11;61296.66;5070717;28;20490;-73
2022/03/19 07:28:53;;;;;;;25.07;11.77;;;;;;;4.73;88.00;61305.69;5071107;28;20487;-75
2022/03/19 07:31:22;;;;;;;32.03;12.07;;;;;;;4.63;89.82;61297.06;5071276;28;20878;-74
2022/03/19 07:33:50;;;;;;;25.53;12.03;;;;;;;4.90;90.19;61325.81;5071124;28;20577;-75
2022/03/19 07:36:19;;;;;;;28.23;11.50;;;;;;;5.03;100.00;61339.66;5071730;28;20886;-76
2022/03/19 07:38:46;;;;;;;29.20;11.73;;;;;;;5.13;88.12;61348.31;5071541;28;20442;-73
2022/03/19 07:43:57;;;;;;;24.63;12.67;;;;;;;5.17;85.53;61357.09;5084213;28;20700;-74
2022/03/19 07:46:27;;;;;;;32.23;13.07;;;;;;;4.67;90.90;61299.31;5090367;28;20555;-73
2022/03/19 07:48:53;;;;;;;26.13;14.23;;;;;;;5.32;91.86;61370.53;5091766;28;20450;-72
2022/03/19 07:51:20;;;;;;;32.30;15.03;;;;;;;5.39;90.65;61374.94;5091553;28;20504;-74
2022/03/19 07:53:47;;;;;;;28.77;14.80;;;;;;;5.45;91.82;61386.94;5091736;28;20495;-75
2022/03/19 07:56:15;;;;;;;25.77;13.40;;;;;;;5.65;88.74;61402.66;5091378;28;20458;-73
2022/03/19 07:58:49;;;;;;;26.47;12.60;;;;;;;5.58;87.91;61398.25;5089338;28;20442;-74
2022/03/19 08:01:16;;;;;;;50.73;21.37;;;;;;;5.35;84.51;61370.69;5088686;28;20477;-73
2022/03/19 08:03:45;;;;;;;34.77;14.70;;;;;;;5.28;87.84;61363.75;5090844;28;20449;-74
2022/03/19 08:06:11;;;;;;;20.33;12.47;;;;;;;5.50;84.24;61389.72;5090977;28;20578;-74
2022/03/19 08:08:40;;;;;;;25.87;12.37;;;;;;;5.87;84.05;61429.19;5094102;28;20560;-72
2022/03/19 08:11:07;;;;;;;22.63;11.37;;;;;;;6.05;78.44;61447.84;5095520;28;20520;-74
2022/03/19 08:13:34;;;;;;;24.27;13.23;;;;;;;5.91;76.55;61435.97;5095139;28;20453;-74
2022/03/19 08:16:01;;;;;;;24.67;12.87;;;;;;;6.09;75.97;61451.56;5095419;28;20445;-74
2022/03/19 08:18:29;;;;;;;19.90;11.17;;;;;;;6.28;73.92;61474.38;5095264;28;20437;-73
2022/03/19 08:20:59;;;;;;;19.07;11.03;;;;;;;5.76;70.63;61414.38;5095511;28;20446;-73
2022/03/19 08:23:26;;;;;;;23.67;11.93;;;;;;;4.97;73.09;61333.78;5095641;28;20815;-74
2022/03/19 08:25:53;;;;;;;19.10;11.33;;;;;;;5.65;75.41;61408.25;5094878;28;20454;-74
2022/03/19 08:28:20;;;;;;;20.47;10.00;;;;;;;6.31;69.23;61478.09;5095295;28;20510;-74
2022/03/19 08:30:47;;;;;;;18.70;10.47;;;;;;;6.66;67.80;61507.31;5095181;28;20502;-74
2022/03/19 08:33:14;;;;;;;20.47;9.77;;;;;;;6.67;62.81;61513.44;5095103;28;20902;-74
2022/03/19 08:35:41;;;;;;;17.43;10.27;;;;;;;6.79;62.47;61528.78;5095000;28;20472;-73
2022/03/19 08:40:54;;;;;;;15.97;8.77;;;;;;;7.42;54.29;61593.50;5095025;28;20452;-73
2022/03/19 08:43:22;;;;;;;14.10;8.10;;;;;;;7.66;50.89;61611.53;5095198;28;20437;-74
2022/03/19 08:45:49;;;;;;;16.10;8.27;;;;;;;7.66;50.47;61616.59;5095193;28;20469;-75
2022/03/19 08:48:18;;;;;;;16.33;8.97;;;;;;;7.72;50.65;61619.38;5093030;28;20475;-73
2022/03/19 08:50:45;;;;;;;14.37;8.50;;;;;;;7.19;50.68;61571.47;5083544;28;20445;-74
2022/03/19 08:53:14;;;;;;;18.80;9.17;;;;;;;7.56;53.13;61610.97;5093983;28;20496;-75
2022/03/19 08:55:41;;;;;;;15.57;8.40;;;;;;;6.65;51.36;61508.78;5094278;28;20446;-74
2022/03/19 08:58:08;;;;;;;15.60;7.97;;;;;;;5.76;52.84;61419.41;5093989;28;20442;-74
2022/03/19 09:00:37;;;;;;;24.70;12.80;;;;;;;6.38;53.51;61479.97;5082935;28;20454;-75
2022/03/19 09:03:03;;;;;;;12.83;8.10;;;;;;;6.50;53.45;61495.81;5082520;28;20462;-74
2022/03/19 09:05:32;;;;;;;13.50;8.03;;;;;;;6.53;51.94;61501.56;5079516;28;20467;-74
2022/03/19 09:07:59;;;;;;;16.03;7.97;;;;;;;6.54;50.80;61502.63;5094396;28;20488;-75
2022/03/19 09:10:28;;;;;;;17.43;8.00;;;;;;;7.00;52.06;61545.59;5093621;28;20444;-73
2022/03/19 09:12:56;;;;;;;16.33;9.33;;;;;;;6.11;53.23;61456.22;5094142;28;20509;-73
2022/03/19 09:15:23;;;;;;;16.43;8.50;;;;;;;6.15;56.37;61460.50;5093935;28;20448;-74
2022/03/19 09:17:51;;;;;;;12.57;8.07;;;;;;;5.17;55.34;61354.56;5094046;28;20440;-74
2022/03/19 09:20:19;;;;;;;17.10;7.90;;;;;;;5.75;57.68;61416.38;5091539;28;20499;-75
2022/03/19 09:22:46;;;;;;;15.90;8.73;;;;;;;5.40;58.40;61381.59;5094263;28;20507;-73
2022/03/19 09:25:13;;;;;;;12.50;7.80;;;;;;;6.04;59.05;61443.72;5094429;28;20444;-73
2022/03/19 09:27:41;;;;;;;11.97;7.03;;;;;;;6.08;57.56;61453.56;5094467;28;20481;-73
2022/03/19 09:30:09;;;;;;;18.27;5.73;;;;;;;5.97;54.01;61439.31;5093917;28;20442;-72
2022/03/19 09:32:37;;;;;;;18.73;8.10;;;;;;;5.45;54.16;61389.47;5093222;28;20999;-73
2022/03/19 09:35:05;;;;;;;14.40;7.93;;;;;;;5.49;56.84;61386.13;5075677;28;20489;-75
2022/03/19 09:37:32;;;;;;;13.43;7.60;;;;;;;5.42;54.59;61383.72;5093863;28;20448;-75
2022/03/19 09:40:00;;;;;;;13.97;8.40;;;;;;;6.34;54.46;61480.78;5076372;28;20450;-75
2022/03/19 09:42:28;;;;;;;10.93;6.83;;;;;;;6.41;53.27;61483.16;5072940;28;20839;-75
2022/03/19 09:44:57;;;;;;;11.57;7.03;;;;;;;6.51;52.69;61493.84;5070994;28;20453;-74
2022/03/19 09:47:25;;;;;;;13.50;7.97;;;;;;;7.39;52.89;61592.81;5072737;28;21054;-75
2022/03/19 09:49:52;;;;;;;14.17;7.87;;;;;;;6.87;52.63;61532.25;5073147;28;20442;-73
2022/03/19 09:52:21;;;;;;;12.40;7.83;;;;;;;6.24;54.09;61465.03;5073455;28;20439;-73
2022/03/19 09:54:48;;;;;;;11.73;7.83;;;;;;;6.77;52.18;61526.63;5073858;28;20835;-72
2022/03/19 09:57:15;;;;;;;12.87;7.47;;;;;;;6.69;52.43;61513.03;5073658;28;20450;-74
2022/03/19 09:59:42;;;;;;;21.17;8.60;;;;;;;6.46;54.11;61489.03;5073301;28;20443;-74
2022/03/19 10:02:12;;;;;;;18.20;8.37;;;;;;;6.26;52.16;61470.22;5072822;28;21069;-74
2022/03/19 10:04:40;;;;;;;18.57;7.73;;;;;;;5.30;54.19;61360.84;5073814;28;20465;-73
2022/03/19 10:09:52;;;;;;;17.50;8.47;;;;;;;4.94;56.83;61327.53;5074537;28;20429;-73
2022/03/19 10:12:21;;;;;;;19.60;8.63;;;;;;;4.18;57.96;61252.75;5073705;28;20500;-72
2022/03/19 10:14:51;;;;;;;15.03;7.83;;;;;;;4.50;58.41;61281.22;5073377;28;20468;-73
2022/03/19 10:17:32;;;;;;;13.27;7.23;;;;;;;4.74;60.88;61308.75;5073074;28;20488;-73
2022/03/19 10:20:01;;;;;;;15.30;8.10;;;;;;;4.75;60.03;61309.84;5087663;28;20437;-74
2022/03/19 10:22:29;;;;;;;11.40;6.80;;;;;;;4.25;59.10;61260.19;5092686;28;20545;-74
2022/03/19 10:24:58;;;;;;;20.23;8.37;;;;;;;5.06;59.33;61342.84;5092847;28;20484;-73
2022/03/19 10:27:25;;;;;;;13.03;7.43;;;;;;;4.82;59.10;61309.72;5092542;28;20562;-74
2022/03/19 10:30:06;;;;;;;16.17;6.27;;;;;;;5.22;59.48;61359.34;5093167;28;20485;-74
2022/03/19 10:32:34;;;;;;;14.40;6.73;;;;;;;5.21;58.33;61353.25;5092729;28;20494;-74
2022/03/19 10:35:02;;;;;;;15.17;6.53;;;;;;;5.09;57.47;61343.53;5093004;28;20474;-75
2022/03/19 10:37:37;;;;;;;9.50;6.17;;;;;;;5.28;57.79;61363.75;5092618;28;20481;-74
2022/03/19 10:40:07;;;;;;;11.83;5.83;;;;;;;5.41;57.69;61380.13;5092600;28;20448;-74
2022/03/19 10:42:40;;;;;;;10.60;6.00;;;;;;;5.38;57.75;61376.41;5092746;28;20438;-75
2022/03/19 10:45:08;;;;;;;13.77;6.97;;;;;;;6.07;58.44;61447.44;5092492;28;20529;-74
2022/03/19 10:47:46;;;;;;;14.90;6.57;;;;;;;6.91;58.06;61535.97;5092649;28;20573;-75
2022/03/19 10:50:24;;;;;;;10.67;6.33;;;;;;;6.31;54.54;61475.03;5093316;28;20426;-75
2022/03/19 10:52:52;;;;;;;11.23;5.83;;;;;;;6.71;54.33;61520.78;5093206;28;20438;-75
2022/03/19 10:55:20;;;;;;;12.27;6.17;;;;;;;6.07;52.42;61444.38;5092025;28;20510;-75
2022/03/19 10:57:48;;;;;;;19.43;6.90;;;;;;;5.65;56.75;61410.78;5092463;28;20449;-74
2022/03/19 11:00:18;;;;;;;14.67;6.93;;;;;;;5.93;58.47;61437.56;5092508;28;20555;-74
2022/03/19 11:02:48;;;;;;;11.27;6.20;;;;;;;6.36;57.39;61482.91;5092566;28;20480;-74
2022/03/19 11:05:21;;;;;;;11.00;6.40;;;;;;;6.70;55.74;61514.13;5092082;28;20482;-74
2022/03/19 11:07:50;;;;;;;12.13;6.40;;;;;;;7.07;52.95;61555.59;5092303;28;21116;-74
2022/03/19 11:10:19;;;;;;;10.20;6.70;;;;;;;7.46;53.33;61595.25;5092293;28;20511;-74
2022/03/19 11:12:50;;;;;;;10.90;6.37;;;;;;;7.45;50.09;61594.16;5092048;28;20449;-74
2022/03/19 11:15:19;;;;;;;10.00;6.20;;;;;;;7.95;48.83;61646.50;5092255;28;20521;-74
2022/03/19 11:17:49;;;;;;;10.70;6.47;;;;;;;7.15;48.46;61561.59;5091898;28;20445;-74
2022/03/19 11:20:16;;;;;;;11.73;7.23;;;;;;;6.83;49.75;61538.09;5090325;28;20442;-75
2022/03/19 11:22:46;;;;;;;10.90;7.03;;;;;;;7.68;49.36;61616.19;5091722;28;20479;-76
2022/03/19 11:25:20;;;;;;;12.67;6.73;;;;;;;7.96;49.78;61653.19;5090733;28;20442;-75
2022/03/19 11:27:50;;;;;;;12.30;6.67;;;;;;;7.55;48.85;61604.31;5072595;28;20489;-74
2022/03/19 11:30:23;;;;;;;12.53;6.73;;;;;;;7.11;49.62;61562.94;5091964;28;20871;-74
2022/03/19 11:33:24;;;;;;;11.43;6.23;;;;;;;7.49;47.93;61598.44;5090134;28;20454;-74
2022/03/19 11:36:05;;;;;;;10.57;6.87;;;;;;;7.14;47.89;61560.53;5090174;28;20445;-74
2022/03/19 11:38:34;;;;;;;13.40;6.50;;;;;;;6.43;48.88;61485.31;5090874;28;20437;-74
2022/03/19 11:41:16;;;;;;;9.60;5.73;;;;;;;6.74;50.82;61518.38;5091519;28;20463;-73
2022/03/19 11:43:44;;;;;;;8.70;6.10;;;;;;;6.54;51.20;61499.56;5091058;28;20915;-76
2022/03/19 11:46:12;;;;;;;10.20;6.63;;;;;;;6.91;49.87;61535.97;5091566;28;20521;-74